Time;durP1;ratioP1;P1;durP2;ratioP2;P2;SDS_P1;SDS_P2;PMS_P1;PMS_P2;Temp;Humidity;BMP_temperature;BMP_pressure;BME280_temperature;BME280_humidity;BME280_pressure;Samples;Min_cycle;Max_cycle;Signal;HPM_P1;HPM_P2
2021/09/05 11:30:49;;;;;;;7.75;5.30;;;25.00;99.90;;;;;;12049017;27;20436;-66
2021/09/05 11:36:43;;;;;;;6.80;4.43;;;25.40;99.90;;;;;;12017068;27;20057;-66
2021/09/05 11:42:31;;;;;;;11.98;6.72;;;26.20;99.90;;;;;;12016107;27;20512;-66
2021/09/05 11:48:19;;;;;;;7.15;5.15;;;26.80;99.90;;;;;;12021765;27;20069;-67
2021/09/05 11:54:08;;;;;;;5.80;4.43;;;27.20;99.90;;;;;;12014395;27;20049;-68
2021/09/05 11:59:56;;;;;;;6.05;4.47;;;27.60;98.00;;;;;;12017048;27;20060;-68
2021/09/05 12:05:46;;;;;;;6.28;5.22;;;27.70;97.60;;;;;;12022063;27;20060;-66
2021/09/05 12:11:33;;;;;;;10.10;5.72;;;27.60;97.10;;;;;;12016782;27;20049;-67
2021/09/05 12:17:21;;;;;;;7.60;4.55;;;27.60;96.90;;;;;;11877554;27;20069;-67
2021/09/05 12:23:25;;;;;;;6.43;4.80;;;27.90;96.10;;;;;;11837511;28;20054;-66
2021/09/05 12:29:13;;;;;;;7.82;4.63;;;28.30;94.40;;;;;;12002580;27;20046;-67
2021/09/05 12:35:00;;;;;;;4.32;3.92;;;28.60;94.30;;;;;;11940174;28;20067;-67
2021/09/05 12:40:48;;;;;;;4.85;4.10;;;28.90;93.20;;;;;;11873341;28;20050;-67
2021/09/05 12:46:40;;;;;;;6.45;3.90;;;29.00;92.50;;;;;;11998501;28;20046;-67
2021/09/05 12:52:28;;;;;;;6.65;3.92;;;29.20;91.50;;;;;;11956061;27;20044;-66
2021/09/05 12:58:16;;;;;;;5.45;4.43;;;29.40;90.70;;;;;;11911743;27;20062;-66
2021/09/05 13:04:04;;;;;;;5.00;3.50;;;29.60;89.50;;;;;;11839848;27;20530;-66
2021/09/05 13:09:51;;;;;;;16.58;3.80;;;29.60;85.30;;;;;;11839449;28;20066;-70
2021/09/05 13:15:39;;;;;;;6.28;3.80;;;29.60;83.80;;;;;;11865513;28;20093;-64
2021/09/05 13:21:26;;;;;;;5.68;3.60;;;29.60;84.10;;;;;;11909571;28;20050;-69
2021/09/05 13:27:13;;;;;;;4.78;3.38;;;29.70;82.10;;;;;;11884854;28;20436;-65
2021/09/05 13:33:03;;;;;;;4.60;2.95;;;29.70;82.50;;;;;;11902188;28;21009;-65
2021/09/05 13:38:50;;;;;;;7.72;3.10;;;29.80;81.80;;;;;;11906611;28;20050;-66
2021/09/05 13:44:36;;;;;;;5.20;2.95;;;30.00;81.40;;;;;;11913260;28;20055;-66
2021/09/05 13:50:25;;;;;;;8.13;3.28;;;30.20;78.70;;;;;;11863470;28;20056;-66
2021/09/05 13:56:12;;;;;;;4.40;2.80;;;30.30;79.20;;;;;;11841486;27;20042;-67
2021/09/05 14:01:59;;;;;;;8.80;3.42;;;30.30;78.40;;;;;;11865524;27;20045;-66
2021/09/05 14:07:47;;;;;;;5.90;3.30;;;30.30;77.30;;;;;;11855927;27;20050;-66
2021/09/05 14:13:34;;;;;;;3.63;2.95;;;30.40;77.70;;;;;;11879871;28;20042;-69
2021/09/05 14:19:21;;;;;;;7.53;3.47;;;30.60;77.10;;;;;;11858209;28;20057;-69
2021/09/05 14:25:11;;;;;;;6.00;3.60;;;30.90;77.20;;;;;;11846978;27;20584;-68
2021/09/05 14:31:02;;;;;;;8.60;3.33;;;31.10;76.90;;;;;;11921193;28;20078;-69
2021/09/05 14:49:02;;;;;;;8.40;5.78;;;31.50;72.50;;;;;;11902225;28;20502;-69
2021/09/05 14:54:55;;;;;;;9.93;5.38;;;31.40;72.30;;;;;;12057641;28;20426;-69
2021/09/05 15:00:46;;;;;;;13.05;7.90;;;30.90;74.10;;;;;;11870643;28;20054;-69
2021/09/05 15:06:44;;;;;;;6.45;3.38;;;30.40;74.90;;;;;;11872075;28;20080;-69
2021/09/05 15:12:31;;;;;;;5.28;3.50;;;30.20;76.20;;;;;;11865390;28;21622;-69
2021/09/05 15:18:19;;;;;;;7.50;4.60;;;30.10;77.60;;;;;;11843770;27;20046;-69
2021/09/05 15:24:06;;;;;;;8.60;6.03;;;30.30;77.80;;;;;;11961767;28;20050;-68
2021/09/05 15:29:58;;;;;;;6.88;3.95;;;30.40;75.80;;;;;;11863719;27;20099;-69
2021/09/05 15:36:06;;;;;;;9.20;3.53;;;30.60;75.60;;;;;;11850153;27;20051;-68
2021/09/05 15:54:06;;;;;;;6.97;3.22;;;30.20;75.90;;;;;;11895590;27;20078;-69
2021/09/05 15:59:58;;;;;;;7.70;3.38;;;29.90;76.30;;;;;;11844457;28;20059;-69
2021/09/05 16:06:00;;;;;;;6.40;3.27;;;29.70;79.10;;;;;;11859821;27;20136;-69
2021/09/05 16:17:53;;;;;;;8.95;3.85;;;29.30;88.40;;;;;;11853906;28;20513;-70
2021/09/05 16:23:40;;;;;;;5.25;3.78;;;29.00;90.10;;;;;;11869851;27;20146;-69
2021/09/05 16:29:36;;;;;;;5.93;4.05;;;28.90;90.50;;;;;;11851952;27;20058;-69
2021/09/05 16:35:29;;;;;;;8.32;3.72;;;28.70;91.50;;;;;;11997025;27;20046;-69
2021/09/05 16:41:16;;;;;;;7.80;3.60;;;28.70;92.20;;;;;;11858559;28;20495;-69
2021/09/05 16:47:04;;;;;;;5.32;3.53;;;28.90;92.30;;;;;;11889798;28;20054;-69
2021/09/05 16:52:51;;;;;;;4.78;3.33;;;29.00;92.10;;;;;;11851926;28;20107;-69
2021/09/05 16:58:38;;;;;;;3.63;2.95;;;29.00;91.60;;;;;;11982606;28;20061;-70
2021/09/05 17:04:26;;;;;;;6.53;3.10;;;29.70;90.80;;;;;;11874842;28;20061;-69
2021/09/05 17:10:13;;;;;;;4.20;3.20;;;30.50;86.00;;;;;;11860456;28;20117;-70
2021/09/05 17:16:01;;;;;;;4.07;3.22;;;30.40;83.90;;;;;;11875470;28;20982;-68
2021/09/05 17:21:50;;;;;;;5.60;4.00;;;30.20;82.20;;;;;;11937896;28;20074;-69
2021/09/05 17:27:37;;;;;;;11.77;4.85;;;29.70;84.10;;;;;;11853063;28;20869;-69
2021/09/05 17:33:24;;;;;;;11.77;3.63;;;29.40;85.90;;;;;;11858043;27;20430;-68
2021/09/05 17:39:12;;;;;;;7.97;4.45;;;29.00;90.40;;;;;;11859087;27;20051;-69
2021/09/05 17:44:59;;;;;;;9.25;4.40;;;28.60;93.50;;;;;;11850464;28;20051;-69
2021/09/05 17:50:46;;;;;;;6.75;4.20;;;28.20;97.50;;;;;;11852323;28;20517;-69
2021/09/05 17:56:34;;;;;;;8.23;4.32;;;27.90;97.90;;;;;;11886389;28;20054;-69
2021/09/05 18:02:21;;;;;;;11.82;4.55;;;27.50;99.30;;;;;;11857886;27;20421;-69
2021/09/05 18:08:11;;;;;;;8.20;4.82;;;27.10;99.90;;;;;;11888824;27;20053;-69
2021/09/05 18:14:00;;;;;;;9.32;4.60;;;26.90;99.90;;;;;;11881627;28;20479;-68
2021/09/05 18:19:47;;;;;;;9.80;5.10;;;26.70;99.90;;;;;;11882495;28;20422;-69
2021/09/05 18:25:34;;;;;;;9.80;4.93;;;26.70;99.90;;;;;;11850742;28;20059;-69
2021/09/05 18:31:22;;;;;;;8.13;5.07;;;26.70;99.90;;;;;;11983851;28;20061;-68
2021/09/05 18:37:10;;;;;;;7.32;4.82;;;26.60;99.90;;;;;;11914226;28;20544;-69
2021/09/05 18:42:57;;;;;;;6.55;4.55;;;26.40;99.90;;;;;;11900495;28;20050;-69
2021/09/05 18:48:45;;;;;;;7.10;4.93;;;26.30;99.90;;;;;;11874726;28;20567;-70
2021/09/05 18:54:32;;;;;;;6.05;4.32;;;26.20;99.90;;;;;;11862015;27;20111;-70
2021/09/05 19:00:19;;;;;;;8.52;4.10;;;26.00;99.90;;;;;;11954206;28;20048;-68
2021/09/05 19:06:07;;;;;;;6.50;4.20;;;25.90;99.90;;;;;;11885739;28;20123;-67
